createdAt,value
2018-11-03T00:00:49.900Z,80.60
2018-11-03T00:03:17.046Z,81.00
2018-11-03T00:05:44.170Z,81.50
2018-11-03T00:08:11.334Z,81.30
2018-11-03T00:10:38.476Z,81.70
2018-11-03T00:13:05.756Z,82.10
2018-11-03T00:15:32.883Z,82.10
2018-11-03T00:18:00.057Z,82.30
2018-11-03T00:20:27.185Z,82.50
2018-11-03T00:22:54.331Z,83.30
2018-11-03T00:25:21.460Z,83.80
2018-11-03T00:27:48.590Z,84.70
2018-11-03T00:30:15.703Z,85.10
2018-11-03T00:32:42.842Z,85.50
2018-11-03T00:35:10.222Z,85.40
2018-11-03T00:37:37.491Z,85.10
2018-11-03T00:40:07.587Z,86.50
2018-11-03T00:42:34.753Z,87.80
2018-11-03T00:45:01.861Z,88.80
2018-11-03T00:47:28.974Z,88.60
2018-11-03T00:49:56.094Z,88.30
2018-11-03T00:52:23.236Z,88.20
2018-11-03T00:54:50.370Z,88.10
2018-11-03T00:57:17.551Z,88.90
2018-11-03T00:59:44.715Z,89.00
2018-11-03T01:02:11.859Z,89.70
2018-11-03T01:04:39.050Z,90.20
2018-11-03T01:07:06.342Z,90.70
2018-11-03T01:09:33.479Z,90.60
2018-11-03T01:12:00.627Z,90.90
2018-11-03T01:14:27.773Z,91.40
2018-11-03T01:16:54.932Z,91.40
2018-11-03T01:19:22.068Z,91.90
2018-11-03T01:21:49.228Z,92.20
2018-11-03T01:24:16.376Z,92.50
2018-11-03T01:26:43.664Z,92.80
2018-11-03T01:29:11.028Z,93.10
2018-11-03T01:31:38.282Z,93.30
2018-11-03T01:34:05.502Z,94.00
2018-11-03T01:36:32.631Z,94.40
2018-11-03T01:38:59.776Z,94.90
2018-11-03T01:41:26.916Z,95.60
2018-11-03T01:43:54.046Z,95.80
2018-11-03T01:46:21.202Z,96.30
2018-11-03T01:48:48.364Z,96.70
2018-11-03T01:51:15.496Z,97.30
2018-11-03T01:53:42.702Z,98.20
2018-11-03T01:56:09.787Z,98.70
2018-11-03T01:58:36.923Z,98.80
2018-11-03T02:01:04.218Z,98.80
2018-11-03T02:03:31.417Z,99.30
2018-11-03T02:05:58.506Z,98.70
2018-11-03T02:08:25.720Z,98.70
2018-11-03T02:10:52.848Z,98.70
2018-11-03T02:13:19.991Z,98.00
2018-11-03T02:15:47.143Z,97.60
2018-11-03T02:18:14.281Z,96.90
2018-11-03T02:20:41.484Z,97.20
2018-11-03T02:23:08.621Z,96.70
2018-11-03T02:25:35.742Z,96.10
2018-11-03T02:28:02.885Z,95.90
2018-11-03T02:30:30.027Z,96.20
2018-11-03T02:32:57.183Z,96.60
2018-11-03T02:35:24.327Z,97.10
2018-11-03T02:37:51.460Z,97.00
2018-11-03T02:40:18.594Z,96.70
2018-11-03T02:42:45.737Z,97.10
2018-11-03T02:45:12.856Z,97.50
2018-11-03T02:47:40.554Z,97.60
2018-11-03T02:50:09.846Z,97.80
2018-11-03T02:52:36.966Z,97.40
2018-11-03T02:55:04.515Z,97.60
2018-11-03T02:57:31.634Z,97.20
2018-11-03T02:59:58.804Z,97.30
2018-11-03T03:02:25.947Z,97.50
2018-11-03T03:04:53.077Z,97.60
2018-11-03T03:07:20.237Z,97.90
2018-11-03T03:09:47.366Z,97.90
2018-11-03T03:12:14.762Z,98.50
2018-11-03T03:14:41.975Z,98.60
2018-11-03T03:17:09.143Z,99.00
2018-11-03T03:19:36.275Z,98.90
2018-11-03T03:22:03.422Z,98.60
2018-11-03T03:24:30.550Z,99.00
2018-11-03T03:26:57.685Z,98.70
2018-11-03T03:29:24.832Z,99.90
2018-11-03T03:31:51.927Z,99.90
2018-11-03T03:34:19.062Z,99.90
2018-11-03T03:36:46.190Z,99.90
2018-11-03T03:39:13.316Z,99.90
2018-11-03T03:41:40.478Z,99.90
2018-11-03T03:44:07.624Z,99.90
2018-11-03T03:46:34.931Z,99.90
2018-11-03T03:49:02.104Z,99.90
2018-11-03T03:51:29.327Z,99.90
2018-11-03T03:53:56.451Z,99.90
2018-11-03T03:56:23.591Z,99.90
2018-11-03T03:58:50.695Z,99.90
2018-11-03T04:01:17.904Z,99.90
2018-11-03T04:03:45.050Z,99.90
2018-11-03T04:06:12.154Z,99.90
2018-11-03T04:08:39.394Z,99.90
2018-11-03T04:11:06.595Z,99.90
2018-11-03T04:13:33.843Z,99.90
2018-11-03T04:16:01.006Z,99.90
2018-11-03T04:18:28.126Z,99.90
2018-11-03T04:20:55.241Z,99.90
2018-11-03T04:23:22.357Z,99.90
2018-11-03T04:25:49.643Z,99.90
2018-11-03T04:28:16.768Z,99.90
2018-11-03T04:30:43.942Z,99.90
2018-11-03T04:33:11.058Z,99.90
2018-11-03T04:35:38.205Z,99.90
2018-11-03T04:38:05.416Z,99.90
2018-11-03T04:40:32.581Z,99.90
2018-11-03T04:42:59.705Z,99.90
2018-11-03T04:45:26.866Z,99.90
2018-11-03T04:47:53.978Z,99.90
2018-11-03T04:50:21.118Z,99.90
2018-11-03T04:52:48.267Z,99.90
2018-11-03T04:55:15.522Z,99.90
2018-11-03T04:57:42.602Z,99.90
2018-11-03T05:00:10.258Z,99.90
2018-11-03T05:02:37.442Z,99.90
2018-11-03T05:05:04.876Z,99.90
2018-11-03T05:07:32.003Z,99.90
2018-11-03T05:09:59.201Z,99.90
2018-11-03T05:12:26.331Z,99.90
2018-11-03T05:14:54.098Z,99.90
2018-11-03T05:17:21.244Z,99.90
2018-11-03T05:19:48.508Z,99.90
2018-11-03T05:22:15.646Z,99.90
2018-11-03T05:24:42.775Z,99.90
2018-11-03T05:27:09.916Z,99.90
2018-11-03T05:29:37.074Z,99.90
2018-11-03T05:32:04.582Z,99.90
2018-11-03T05:34:31.774Z,99.90
2018-11-03T05:36:58.910Z,99.90
2018-11-03T05:39:26.022Z,99.90
2018-11-03T05:41:53.129Z,99.90
2018-11-03T05:44:20.249Z,99.90
2018-11-03T05:46:47.388Z,99.90
2018-11-03T05:49:14.877Z,99.90
2018-11-03T05:51:41.991Z,99.90
2018-11-03T05:54:09.133Z,99.90
2018-11-03T05:56:36.280Z,99.90
2018-11-03T05:59:03.551Z,99.90
2018-11-03T06:01:30.582Z,99.90
2018-11-03T06:03:57.734Z,99.90
2018-11-03T06:06:24.977Z,99.90
2018-11-03T06:08:52.182Z,99.90
2018-11-03T06:11:19.280Z,99.90
2018-11-03T06:13:46.406Z,99.90
2018-11-03T06:16:13.558Z,99.90
2018-11-03T06:18:40.853Z,99.90
2018-11-03T06:21:07.995Z,99.90
2018-11-03T06:23:35.172Z,99.90
2018-11-03T06:26:02.243Z,99.90
2018-11-03T06:28:29.383Z,99.90
2018-11-03T06:30:56.545Z,99.90
2018-11-03T06:33:23.694Z,99.90
2018-11-03T06:35:50.822Z,99.90
2018-11-03T06:38:17.966Z,99.90
2018-11-03T06:40:45.130Z,99.90
2018-11-03T06:43:12.294Z,99.90
2018-11-03T06:45:39.442Z,99.90
2018-11-03T06:48:06.680Z,99.90
2018-11-03T06:50:33.814Z,99.90
2018-11-03T06:53:01.066Z,99.90
2018-11-03T06:55:28.772Z,99.10
2018-11-03T06:57:55.894Z,94.30
2018-11-03T07:00:23.443Z,91.30
2018-11-03T07:02:50.600Z,86.00
2018-11-03T07:05:17.849Z,80.00
2018-11-03T07:07:44.878Z,76.00
2018-11-03T07:10:12.034Z,70.50
2018-11-03T07:12:39.675Z,70.00
2018-11-03T07:15:06.698Z,66.80
2018-11-03T07:17:34.315Z,64.00
2018-11-03T07:20:02.445Z,61.40
2018-11-03T07:22:29.602Z,59.00
2018-11-03T07:24:56.772Z,58.20
2018-11-03T07:27:23.910Z,56.00
2018-11-03T07:29:51.112Z,54.60
2018-11-03T07:32:18.183Z,53.10
2018-11-03T07:34:45.355Z,52.70
2018-11-03T07:37:12.502Z,52.50
2018-11-03T07:39:39.647Z,51.30
2018-11-03T07:42:06.912Z,50.70
2018-11-03T07:44:34.057Z,50.00
2018-11-03T07:47:01.203Z,51.90
2018-11-03T07:49:28.449Z,53.60
2018-11-03T07:51:55.494Z,54.10
2018-11-03T07:54:22.637Z,54.00
2018-11-03T07:56:49.852Z,54.50
2018-11-03T07:59:17.010Z,55.20
2018-11-03T08:01:44.182Z,56.30
2018-11-03T08:04:11.317Z,57.70
2018-11-03T08:06:38.507Z,59.40
2018-11-03T08:09:07.125Z,60.80
2018-11-03T08:11:34.247Z,63.10
2018-11-03T08:14:01.386Z,66.90
2018-11-03T08:16:28.562Z,68.90
2018-11-03T08:18:55.686Z,71.80
2018-11-03T08:21:22.829Z,73.90
2018-11-03T08:23:49.976Z,75.30
2018-11-03T08:26:17.057Z,77.10
2018-11-03T08:28:44.188Z,77.60
2018-11-03T08:31:11.322Z,77.70
2018-11-03T08:33:38.458Z,78.00
2018-11-03T08:36:05.623Z,75.30
2018-11-03T08:38:32.765Z,75.10
2018-11-03T08:40:59.895Z,73.70
2018-11-03T08:43:27.011Z,76.90
2018-11-03T08:45:59.887Z,77.00
2018-11-03T08:48:26.976Z,78.70
2018-11-03T08:50:54.099Z,79.40
2018-11-03T08:53:21.240Z,81.00
2018-11-03T08:55:48.398Z,81.30
2018-11-03T08:58:15.553Z,81.40
2018-11-03T09:00:42.693Z,81.10
2018-11-03T09:03:09.833Z,77.00
2018-11-03T09:05:36.960Z,76.90
2018-11-03T09:08:04.451Z,77.20
2018-11-03T09:10:31.579Z,76.30
2018-11-03T09:12:58.727Z,75.90
2018-11-03T09:15:25.883Z,73.30
2018-11-03T09:17:53.007Z,72.60
2018-11-03T09:20:20.168Z,71.10
2018-11-03T09:22:47.383Z,68.20
2018-11-03T09:25:16.263Z,67.30
2018-11-03T09:27:43.843Z,66.20
2018-11-03T09:30:13.438Z,66.90
2018-11-03T09:32:40.803Z,66.70
2018-11-03T09:35:08.966Z,66.10
2018-11-03T09:37:36.162Z,64.10
2018-11-03T09:40:03.779Z,64.70
2018-11-03T09:42:30.885Z,64.50
2018-11-03T09:44:58.101Z,63.70
2018-11-03T09:47:25.207Z,62.80
2018-11-03T09:49:52.333Z,61.40
2018-11-03T09:52:19.506Z,61.50
2018-11-03T09:54:46.667Z,62.40
2018-11-03T09:57:13.819Z,62.00
2018-11-03T09:59:40.947Z,61.60
2018-11-03T10:02:08.086Z,60.90
2018-11-03T10:04:35.241Z,61.20
2018-11-03T10:07:02.390Z,60.70
2018-11-03T10:09:29.691Z,61.60
2018-11-03T10:11:56.879Z,61.70
2018-11-03T10:14:24.008Z,60.60
2018-11-03T10:16:51.166Z,60.90
2018-11-03T10:19:18.364Z,61.00
2018-11-03T10:21:45.535Z,61.40
2018-11-03T10:24:12.701Z,62.40
2018-11-03T10:26:39.930Z,62.70
2018-11-03T10:29:07.066Z,62.30
2018-11-03T10:31:34.222Z,62.30
2018-11-03T10:34:01.374Z,61.10
2018-11-03T10:36:28.533Z,60.80
2018-11-03T10:38:55.684Z,62.00
2018-11-03T10:41:22.833Z,62.20
2018-11-03T10:43:49.982Z,61.90
2018-11-03T10:46:17.180Z,61.50
2018-11-03T10:48:44.240Z,61.20
2018-11-03T10:51:11.400Z,60.90
2018-11-03T10:53:38.626Z,61.30
2018-11-03T10:56:05.770Z,61.10
2018-11-03T10:58:32.943Z,61.30
2018-11-03T11:01:05.948Z,62.20
2018-11-03T11:03:38.933Z,61.00
2018-11-03T11:06:11.952Z,61.40
2018-11-03T11:08:44.736Z,60.80
2018-11-03T11:11:17.607Z,60.50
2018-11-03T11:13:45.437Z,61.80
2018-11-03T11:16:12.600Z,62.00
2018-11-03T11:18:40.011Z,61.30
2018-11-03T11:21:07.171Z,62.00
2018-11-03T11:23:34.388Z,62.90
2018-11-03T11:26:01.486Z,61.90
2018-11-03T11:28:28.733Z,60.70
2018-11-03T11:30:55.881Z,60.80
2018-11-03T11:33:23.049Z,60.30
2018-11-03T11:35:51.528Z,60.80
2018-11-03T11:38:18.694Z,59.90
2018-11-03T11:40:45.879Z,60.00
2018-11-03T11:43:13.872Z,61.00
2018-11-03T11:45:40.850Z,59.90
2018-11-03T11:48:08.184Z,59.10
2018-11-03T11:50:35.318Z,58.90
2018-11-03T11:53:02.470Z,59.10
2018-11-03T11:55:29.621Z,58.30
2018-11-03T11:57:56.785Z,57.50
2018-11-03T12:00:23.957Z,58.30
2018-11-03T12:02:51.850Z,58.80
2018-11-03T12:05:19.099Z,59.50
2018-11-03T12:07:46.226Z,58.90
2018-11-03T12:10:13.538Z,57.10
2018-11-03T12:12:40.722Z,56.40
2018-11-03T12:15:08.842Z,55.20
2018-11-03T12:17:36.139Z,55.50
2018-11-03T12:20:03.514Z,56.00
2018-11-03T12:22:30.667Z,55.90
2018-11-03T12:24:57.830Z,56.10
2018-11-03T12:27:25.394Z,55.80
2018-11-03T12:29:52.516Z,54.20
2018-11-03T12:32:19.874Z,54.30
2018-11-03T12:34:47.000Z,55.10
2018-11-03T12:37:14.156Z,55.20
2018-11-03T12:39:41.269Z,55.60
2018-11-03T12:42:08.463Z,56.30
2018-11-03T12:44:35.653Z,56.60
2018-11-03T12:47:02.808Z,56.50
2018-11-03T12:49:29.976Z,56.60
2018-11-03T12:51:57.107Z,56.60
2018-11-03T12:54:24.231Z,56.60
2018-11-03T12:56:51.388Z,57.10
2018-11-03T12:59:18.568Z,57.30
2018-11-03T13:01:45.744Z,57.30
2018-11-03T13:04:12.923Z,56.70
2018-11-03T13:06:40.032Z,57.40
2018-11-03T13:09:07.859Z,57.60
2018-11-03T13:11:34.998Z,57.30
2018-11-03T13:14:02.150Z,57.50
2018-11-03T13:16:29.421Z,57.90
2018-11-03T13:18:56.523Z,58.00
2018-11-03T13:21:23.646Z,58.30
2018-11-03T13:23:50.866Z,58.10
2018-11-03T13:26:18.000Z,58.00
2018-11-03T13:28:45.136Z,58.40
2018-11-03T13:31:12.275Z,58.50
2018-11-03T13:33:39.426Z,58.80
2018-11-03T13:36:06.751Z,58.90
2018-11-03T13:38:33.940Z,59.10
2018-11-03T13:41:01.204Z,59.70
2018-11-03T13:43:28.273Z,59.50
2018-11-03T13:45:55.398Z,59.30
2018-11-03T13:48:22.658Z,59.70
2018-11-03T13:50:49.802Z,60.40
2018-11-03T13:53:16.963Z,60.20
2018-11-03T13:55:44.112Z,60.80
2018-11-03T13:58:11.239Z,61.20
2018-11-03T14:00:38.361Z,61.30
2018-11-03T14:03:05.505Z,61.80
2018-11-03T14:05:32.668Z,62.00
2018-11-03T14:07:59.789Z,62.20
2018-11-03T14:10:26.913Z,62.00
2018-11-03T14:12:54.065Z,62.70
2018-11-03T14:15:21.224Z,61.80
2018-11-03T14:17:48.317Z,62.30
2018-11-03T14:20:16.131Z,62.20
2018-11-03T14:22:43.924Z,62.60
2018-11-03T14:25:12.290Z,62.50
2018-11-03T14:27:40.068Z,62.90
2018-11-03T14:30:08.124Z,62.70
2018-11-03T14:32:35.262Z,62.60
2018-11-03T14:35:02.404Z,63.20
2018-11-03T14:37:29.539Z,63.60
2018-11-03T14:39:56.683Z,64.40
2018-11-03T14:42:23.817Z,64.30
2018-11-03T14:44:51.125Z,64.90
2018-11-03T14:47:18.224Z,64.40
2018-11-03T14:49:47.786Z,64.30
2018-11-03T14:52:16.870Z,64.90
2018-11-03T14:54:48.759Z,65.60
2018-11-03T14:57:16.085Z,65.90
2018-11-03T14:59:43.222Z,66.50
2018-11-03T15:02:10.383Z,66.30
2018-11-03T15:04:37.515Z,66.10
2018-11-03T15:07:04.988Z,66.40
2018-11-03T15:09:32.113Z,66.60
2018-11-03T15:11:59.246Z,66.10
2018-11-03T15:14:26.498Z,66.30
2018-11-03T15:16:53.510Z,67.40
2018-11-03T15:19:20.653Z,67.60
2018-11-03T15:21:47.802Z,66.60
2018-11-03T15:24:14.983Z,66.80
2018-11-03T15:26:42.188Z,67.10
2018-11-03T15:29:09.340Z,67.70
2018-11-03T15:31:36.570Z,68.60
2018-11-03T15:34:03.807Z,69.00
2018-11-03T15:36:30.966Z,70.30
2018-11-03T15:38:59.096Z,71.10
2018-11-03T15:41:27.984Z,72.10
2018-11-03T15:43:55.081Z,72.70
2018-11-03T15:46:22.217Z,73.80
2018-11-03T15:48:49.363Z,77.30
2018-11-03T15:51:16.544Z,79.70
2018-11-03T15:53:43.708Z,81.70
2018-11-03T15:56:10.958Z,82.80
2018-11-03T15:58:38.109Z,84.40
2018-11-03T16:01:05.256Z,85.60
2018-11-03T16:03:32.420Z,86.70
2018-11-03T16:05:59.577Z,87.60
2018-11-03T16:08:26.735Z,89.10
2018-11-03T16:10:53.874Z,90.00
2018-11-03T16:13:21.026Z,90.60
2018-11-03T16:15:48.152Z,91.30
2018-11-03T16:18:15.293Z,92.30
2018-11-03T16:20:42.454Z,93.50
2018-11-03T16:23:09.606Z,94.10
2018-11-03T16:25:37.436Z,94.30
2018-11-03T16:28:04.835Z,95.10
2018-11-03T16:30:31.975Z,95.80
2018-11-03T16:32:59.242Z,96.50
2018-11-03T16:35:26.419Z,97.20
2018-11-03T16:37:53.522Z,97.60
2018-11-03T16:40:20.672Z,97.50
2018-11-03T16:42:47.802Z,97.70
2018-11-03T16:45:15.827Z,98.60
2018-11-03T16:47:43.293Z,99.40
2018-11-03T16:50:11.578Z,99.90
2018-11-03T16:52:39.223Z,99.90
2018-11-03T16:55:06.987Z,99.90
2018-11-03T16:57:34.139Z,99.90
2018-11-03T17:00:01.275Z,99.90
2018-11-03T17:02:28.439Z,99.90
2018-11-03T17:04:55.579Z,99.90
2018-11-03T17:07:22.722Z,99.90
2018-11-03T17:09:49.875Z,99.90
2018-11-03T17:12:17.074Z,99.90
2018-11-03T17:14:44.142Z,99.90
2018-11-03T17:17:11.263Z,99.90
2018-11-03T17:19:38.398Z,99.90
2018-11-03T17:22:05.560Z,99.90
2018-11-03T17:24:32.690Z,99.90
2018-11-03T17:26:59.839Z,99.90
2018-11-03T17:29:27.012Z,99.90
2018-11-03T17:31:54.154Z,99.90
2018-11-03T17:34:21.306Z,99.90
2018-11-03T17:36:48.454Z,99.90
2018-11-03T17:39:15.591Z,99.90
2018-11-03T17:41:42.766Z,99.90
2018-11-03T17:44:09.997Z,99.90
2018-11-03T17:46:37.073Z,99.90
2018-11-03T17:49:04.245Z,99.90
2018-11-03T17:51:31.445Z,99.90
2018-11-03T17:53:58.586Z,99.90
2018-11-03T17:56:25.732Z,99.90
2018-11-03T17:58:52.902Z,99.90
2018-11-03T18:01:20.241Z,99.90
2018-11-03T18:03:47.163Z,99.90
2018-11-03T18:06:14.339Z,99.90
2018-11-03T18:08:41.462Z,99.90
2018-11-03T18:11:08.579Z,99.90
2018-11-03T18:13:35.986Z,99.90
2018-11-03T18:16:03.110Z,99.90
2018-11-03T18:18:30.240Z,99.90
2018-11-03T18:20:57.367Z,99.90
2018-11-03T18:23:24.510Z,99.90
2018-11-03T18:25:51.642Z,99.90
2018-11-03T18:28:18.773Z,99.90
2018-11-03T18:30:45.963Z,99.90
2018-11-03T18:33:13.233Z,99.90
2018-11-03T18:35:40.346Z,99.90
2018-11-03T18:38:07.467Z,99.90
2018-11-03T18:40:34.726Z,99.90
2018-11-03T18:43:01.854Z,99.90
2018-11-03T18:45:28.976Z,99.90
2018-11-03T18:47:56.121Z,99.90
2018-11-03T18:50:23.265Z,99.90
2018-11-03T18:52:50.419Z,99.90
2018-11-03T18:55:17.570Z,99.90
2018-11-03T18:57:44.696Z,99.90
2018-11-03T19:00:11.837Z,99.90
2018-11-03T19:02:39.832Z,99.90
2018-11-03T19:05:07.403Z,99.90
2018-11-03T19:07:34.558Z,99.90
2018-11-03T19:10:01.698Z,99.90
2018-11-03T19:12:28.853Z,99.90
2018-11-03T19:14:56.018Z,99.90
2018-11-03T19:17:23.144Z,99.90
2018-11-03T19:19:50.284Z,99.90
2018-11-03T19:22:17.418Z,99.90
2018-11-03T19:24:44.526Z,99.90
2018-11-03T19:27:11.655Z,99.90
2018-11-03T19:29:38.911Z,99.90
2018-11-03T19:32:06.310Z,99.90
2018-11-03T19:34:33.441Z,99.90
2018-11-03T19:37:00.594Z,99.90
2018-11-03T19:39:27.710Z,99.90
2018-11-03T19:41:54.851Z,99.90
2018-11-03T19:44:22.014Z,99.90
2018-11-03T19:46:49.143Z,99.90
2018-11-03T19:49:16.311Z,99.90
2018-11-03T19:51:43.591Z,99.90
2018-11-03T19:54:10.944Z,99.90
2018-11-03T19:56:38.113Z,99.90
2018-11-03T19:59:05.259Z,99.90
2018-11-03T20:01:32.398Z,99.90
2018-11-03T20:03:59.530Z,99.90
2018-11-03T20:06:26.679Z,99.90
2018-11-03T20:08:53.814Z,99.90
2018-11-03T20:11:20.941Z,99.90
2018-11-03T20:13:48.074Z,99.90
2018-11-03T20:16:15.195Z,99.90
2018-11-03T20:18:42.315Z,99.90
2018-11-03T20:21:09.443Z,99.90
2018-11-03T20:23:36.581Z,99.90
2018-11-03T20:26:03.828Z,99.90
2018-11-03T20:28:30.946Z,99.90
2018-11-03T20:30:58.075Z,99.90
2018-11-03T20:33:25.223Z,99.90
2018-11-03T20:35:52.348Z,99.90
2018-11-03T20:38:19.746Z,99.90
2018-11-03T20:40:46.874Z,99.90
2018-11-03T20:43:14.002Z,99.90
2018-11-03T20:45:41.150Z,99.90
2018-11-03T20:48:08.386Z,99.90
2018-11-03T20:50:35.556Z,99.90
2018-11-03T20:53:02.706Z,99.90
2018-11-03T20:55:29.896Z,99.90
2018-11-03T20:57:57.072Z,99.90
2018-11-03T21:00:24.225Z,99.90
2018-11-03T21:02:51.374Z,99.90
2018-11-03T21:05:18.730Z,99.90
2018-11-03T21:07:46.086Z,99.90
2018-11-03T21:10:13.294Z,99.90
2018-11-03T21:12:40.482Z,99.90
2018-11-03T21:15:07.651Z,99.90
2018-11-03T21:17:34.905Z,99.90
2018-11-03T21:20:02.213Z,99.90
2018-11-03T21:22:29.331Z,99.90
2018-11-03T21:24:56.453Z,99.90
2018-11-03T21:27:23.596Z,99.90
2018-11-03T21:29:50.747Z,99.90
2018-11-03T21:32:18.008Z,99.90
2018-11-03T21:34:45.078Z,99.90
2018-11-03T21:37:12.222Z,99.90
2018-11-03T21:39:39.366Z,99.90
2018-11-03T21:42:06.670Z,99.90
2018-11-03T21:44:33.946Z,99.90
2018-11-03T21:47:01.130Z,99.90
2018-11-03T21:49:28.227Z,99.90
2018-11-03T21:51:55.394Z,99.90
2018-11-03T21:54:22.544Z,99.90
2018-11-03T21:56:49.789Z,99.90
2018-11-03T21:59:16.918Z,99.90
2018-11-03T22:01:44.041Z,99.90
2018-11-03T22:04:11.217Z,99.90
2018-11-03T22:06:38.595Z,99.90
2018-11-03T22:09:07.916Z,99.90
2018-11-03T22:11:35.424Z,99.90
2018-11-03T22:14:02.626Z,99.90
2018-11-03T22:16:29.759Z,99.90
2018-11-03T22:18:56.882Z,99.90
2018-11-03T22:21:24.006Z,99.90
2018-11-03T22:23:51.136Z,99.90
2018-11-03T22:26:18.287Z,99.90
2018-11-03T22:28:45.419Z,99.90
2018-11-03T22:31:12.557Z,99.80
2018-11-03T22:33:39.658Z,99.90
2018-11-03T22:36:06.770Z,99.90
2018-11-03T22:38:33.903Z,99.90
2018-11-03T22:41:01.028Z,99.90
2018-11-03T22:43:28.168Z,99.90
2018-11-03T22:45:55.310Z,99.90
2018-11-03T22:48:22.447Z,99.90
2018-11-03T22:50:49.596Z,99.90
2018-11-03T22:53:16.738Z,99.90
2018-11-03T22:55:43.942Z,99.90
2018-11-03T22:58:11.060Z,99.90
2018-11-03T23:00:44.031Z,99.90
2018-11-03T23:03:11.210Z,99.90
2018-11-03T23:05:38.347Z,99.90
2018-11-03T23:08:05.560Z,99.90
2018-11-03T23:10:32.700Z,99.90
2018-11-03T23:12:59.918Z,99.90
2018-11-03T23:15:26.970Z,99.90
2018-11-03T23:17:54.145Z,99.90
2018-11-03T23:20:21.287Z,99.90
2018-11-03T23:22:48.414Z,99.90
2018-11-03T23:25:15.570Z,99.90
2018-11-03T23:27:42.703Z,99.90
2018-11-03T23:30:11.294Z,99.90
2018-11-03T23:32:38.422Z,99.90
2018-11-03T23:35:06.648Z,99.90
2018-11-03T23:37:33.767Z,99.90
2018-11-03T23:40:00.906Z,99.90
2018-11-03T23:42:28.071Z,99.90
2018-11-03T23:44:55.239Z,99.90
2018-11-03T23:47:22.329Z,99.90
2018-11-03T23:49:49.462Z,99.90
2018-11-03T23:52:21.218Z,99.90
2018-11-03T23:54:48.357Z,99.90
2018-11-03T23:57:15.510Z,99.90
2018-11-03T23:59:42.652Z,99.90
